Terminal Aerodrome Forecast
Issued by NWS

Home | Current Version | Previous Version | Text Only | Print | Product List | Glossary Off
Versions: 1 2 3 4 5 6 7 8 9 10 11 12 13 14 15 16 17

000
FTUS43 KMPX 191100
TAFRWF
TAF
KRWF 191133Z 1912/2012 31018G30KT P6SM SCT015 OVC035
     FM191400 30020G32KT 6SM -SN BLSN SCT015 OVC030
     FM192100 29016G25KT P6SM BKN035
     FM200100 29008KT P6SM SCT030=

USA.gov is the U.S. government's official web portal to all federal, state and local government web resources and services.